sensor_id;sensor_type;location;lat;lon;timestamp;P1;durP1;ratioP1;P2;durP2;ratioP2
22871;SDS011;11603;44.910;8.630;2022-12-05T00:01:38;36.85;;;28.75;;
22871;SDS011;11603;44.910;8.630;2022-12-05T00:04:03;34.58;;;27.30;;
22871;SDS011;11603;44.910;8.630;2022-12-05T00:06:33;41.38;;;28.13;;
22871;SDS011;11603;44.910;8.630;2022-12-05T00:09:00;36.33;;;26.67;;
22871;SDS011;11603;44.910;8.630;2022-12-05T00:11:28;34.53;;;27.05;;
22871;SDS011;11603;44.910;8.630;2022-12-05T00:13:57;35.03;;;28.15;;
22871;SDS011;11603;44.910;8.630;2022-12-05T00:16:25;37.08;;;28.40;;
22871;SDS011;11603;44.910;8.630;2022-12-05T00:18:52;37.47;;;28.70;;
22871;SDS011;11603;44.910;8.630;2022-12-05T00:21:21;36.03;;;26.85;;
22871;SDS011;11603;44.910;8.630;2022-12-05T00:23:48;35.80;;;27.63;;
22871;SDS011;11603;44.910;8.630;2022-12-05T00:26:15;37.70;;;27.27;;
22871;SDS011;11603;44.910;8.630;2022-12-05T00:28:41;39.17;;;27.83;;
22871;SDS011;11603;44.910;8.630;2022-12-05T00:31:16;39.60;;;28.02;;
22871;SDS011;11603;44.910;8.630;2022-12-05T00:33:44;40.10;;;29.48;;
22871;SDS011;11603;44.910;8.630;2022-12-05T00:36:13;38.75;;;28.23;;
22871;SDS011;11603;44.910;8.630;2022-12-05T00:38:42;39.45;;;28.60;;
22871;SDS011;11603;44.910;8.630;2022-12-05T00:41:14;38.50;;;28.80;;
22871;SDS011;11603;44.910;8.630;2022-12-05T00:43:41;40.10;;;28.40;;
22871;SDS011;11603;44.910;8.630;2022-12-05T00:46:08;38.80;;;28.13;;
22871;SDS011;11603;44.910;8.630;2022-12-05T00:48:35;41.15;;;29.23;;
22871;SDS011;11603;44.910;8.630;2022-12-05T00:51:01;39.53;;;28.80;;
22871;SDS011;11603;44.910;8.630;2022-12-05T00:53:28;40.85;;;29.77;;
22871;SDS011;11603;44.910;8.630;2022-12-05T00:55:54;43.55;;;31.33;;
22871;SDS011;11603;44.910;8.630;2022-12-05T00:58:19;43.15;;;31.15;;
22871;SDS011;11603;44.910;8.630;2022-12-05T01:00:45;43.33;;;31.42;;
22871;SDS011;11603;44.910;8.630;2022-12-05T01:03:10;40.25;;;30.33;;
22871;SDS011;11603;44.910;8.630;2022-12-05T01:05:36;41.42;;;30.67;;
22871;SDS011;11603;44.910;8.630;2022-12-05T01:08:01;44.05;;;30.38;;
22871;SDS011;11603;44.910;8.630;2022-12-05T01:10:27;41.63;;;28.27;;
22871;SDS011;11603;44.910;8.630;2022-12-05T01:12:52;39.58;;;28.60;;
22871;SDS011;11603;44.910;8.630;2022-12-05T01:15:18;39.67;;;28.65;;
22871;SDS011;11603;44.910;8.630;2022-12-05T01:17:43;38.88;;;27.52;;
22871;SDS011;11603;44.910;8.630;2022-12-05T01:20:09;40.80;;;27.77;;
22871;SDS011;11603;44.910;8.630;2022-12-05T01:22:34;36.38;;;27.48;;
22871;SDS011;11603;44.910;8.630;2022-12-05T01:25:00;38.20;;;27.42;;
22871;SDS011;11603;44.910;8.630;2022-12-05T01:27:25;36.53;;;27.45;;
22871;SDS011;11603;44.910;8.630;2022-12-05T01:29:51;38.35;;;28.50;;
22871;SDS011;11603;44.910;8.630;2022-12-05T01:32:16;39.00;;;28.25;;
22871;SDS011;11603;44.910;8.630;2022-12-05T01:34:42;35.55;;;26.45;;
22871;SDS011;11603;44.910;8.630;2022-12-05T01:37:07;38.53;;;27.58;;
22871;SDS011;11603;44.910;8.630;2022-12-05T01:39:34;37.83;;;28.08;;
22871;SDS011;11603;44.910;8.630;2022-12-05T01:42:01;37.80;;;27.58;;
22871;SDS011;11603;44.910;8.630;2022-12-05T01:46:55;40.55;;;28.90;;
22871;SDS011;11603;44.910;8.630;2022-12-05T01:49:31;40.13;;;28.33;;
22871;SDS011;11603;44.910;8.630;2022-12-05T01:52:03;42.42;;;27.80;;
22871;SDS011;11603;44.910;8.630;2022-12-05T01:54:35;43.17;;;29.33;;
22871;SDS011;11603;44.910;8.630;2022-12-05T01:57:03;41.03;;;29.02;;
22871;SDS011;11603;44.910;8.630;2022-12-05T01:59:33;44.75;;;29.73;;
22871;SDS011;11603;44.910;8.630;2022-12-05T02:02:02;42.70;;;28.77;;
22871;SDS011;11603;44.910;8.630;2022-12-05T02:04:28;43.92;;;29.35;;
22871;SDS011;11603;44.910;8.630;2022-12-05T02:06:54;42.15;;;28.45;;
22871;SDS011;11603;44.910;8.630;2022-12-05T02:09:20;43.42;;;29.60;;
22871;SDS011;11603;44.910;8.630;2022-12-05T02:11:49;43.15;;;27.15;;
22871;SDS011;11603;44.910;8.630;2022-12-05T02:22:42;41.58;;;26.98;;
22871;SDS011;11603;44.910;8.630;2022-12-05T02:30:46;42.55;;;28.48;;
22871;SDS011;11603;44.910;8.630;2022-12-05T02:39:16;41.35;;;27.73;;
22871;SDS011;11603;44.910;8.630;2022-12-05T02:44:30;41.67;;;28.02;;
22871;SDS011;11603;44.910;8.630;2022-12-05T02:47:02;39.78;;;27.10;;
22871;SDS011;11603;44.910;8.630;2022-12-05T02:49:30;43.08;;;27.45;;
22871;SDS011;11603;44.910;8.630;2022-12-05T02:51:59;42.15;;;27.65;;
22871;SDS011;11603;44.910;8.630;2022-12-05T02:54:29;41.88;;;27.77;;
22871;SDS011;11603;44.910;8.630;2022-12-05T02:56:57;45.42;;;28.33;;
22871;SDS011;11603;44.910;8.630;2022-12-05T02:59:24;45.25;;;29.60;;
22871;SDS011;11603;44.910;8.630;2022-12-05T03:01:50;45.42;;;28.83;;
22871;SDS011;11603;44.910;8.630;2022-12-05T03:04:16;42.22;;;28.75;;
22871;SDS011;11603;44.910;8.630;2022-12-05T03:06:46;43.35;;;28.55;;
22871;SDS011;11603;44.910;8.630;2022-12-05T03:09:21;42.13;;;27.05;;
22871;SDS011;11603;44.910;8.630;2022-12-05T03:11:51;43.53;;;27.58;;
22871;SDS011;11603;44.910;8.630;2022-12-05T03:14:32;39.22;;;26.60;;
22871;SDS011;11603;44.910;8.630;2022-12-05T03:17:04;39.00;;;26.67;;
22871;SDS011;11603;44.910;8.630;2022-12-05T03:22:20;42.17;;;27.52;;
22871;SDS011;11603;44.910;8.630;2022-12-05T03:25:09;41.15;;;26.73;;
22871;SDS011;11603;44.910;8.630;2022-12-05T03:27:51;36.53;;;25.52;;
22871;SDS011;11603;44.910;8.630;2022-12-05T03:30:23;37.92;;;26.13;;
22871;SDS011;11603;44.910;8.630;2022-12-05T03:43:09;44.20;;;28.35;;
22871;SDS011;11603;44.910;8.630;2022-12-05T03:45:48;39.80;;;27.17;;
22871;SDS011;11603;44.910;8.630;2022-12-05T03:48:20;41.47;;;28.00;;
22871;SDS011;11603;44.910;8.630;2022-12-05T03:50:54;41.45;;;27.02;;
22871;SDS011;11603;44.910;8.630;2022-12-05T03:53:23;41.20;;;27.27;;
22871;SDS011;11603;44.910;8.630;2022-12-05T03:56:15;42.55;;;27.60;;
22871;SDS011;11603;44.910;8.630;2022-12-05T03:59:01;41.92;;;26.52;;
22871;SDS011;11603;44.910;8.630;2022-12-05T04:01:32;38.88;;;26.75;;
22871;SDS011;11603;44.910;8.630;2022-12-05T04:04:05;39.58;;;25.42;;
22871;SDS011;11603;44.910;8.630;2022-12-05T04:06:38;40.05;;;26.05;;
22871;SDS011;11603;44.910;8.630;2022-12-05T04:11:44;39.85;;;25.20;;
22871;SDS011;11603;44.910;8.630;2022-12-05T04:14:16;38.45;;;25.83;;
22871;SDS011;11603;44.910;8.630;2022-12-05T04:16:48;38.83;;;25.27;;
22871;SDS011;11603;44.910;8.630;2022-12-05T04:22:25;37.08;;;25.17;;
22871;SDS011;11603;44.910;8.630;2022-12-05T04:24:51;36.35;;;24.83;;
22871;SDS011;11603;44.910;8.630;2022-12-05T04:30:20;37.65;;;24.92;;
22871;SDS011;11603;44.910;8.630;2022-12-05T04:35:29;38.17;;;23.55;;
22871;SDS011;11603;44.910;8.630;2022-12-05T04:38:02;37.10;;;24.27;;
22871;SDS011;11603;44.910;8.630;2022-12-05T04:40:35;37.78;;;24.38;;
22871;SDS011;11603;44.910;8.630;2022-12-05T04:43:04;38.30;;;24.33;;
22871;SDS011;11603;44.910;8.630;2022-12-05T04:45:33;37.03;;;23.60;;
22871;SDS011;11603;44.910;8.630;2022-12-05T04:48:03;37.47;;;24.52;;
22871;SDS011;11603;44.910;8.630;2022-12-05T04:50:35;35.47;;;23.42;;
22871;SDS011;11603;44.910;8.630;2022-12-05T04:53:04;37.53;;;24.65;;
22871;SDS011;11603;44.910;8.630;2022-12-05T04:55:31;35.58;;;24.50;;
22871;SDS011;11603;44.910;8.630;2022-12-05T04:58:05;36.42;;;23.67;;
22871;SDS011;11603;44.910;8.630;2022-12-05T05:00:36;34.80;;;23.40;;
22871;SDS011;11603;44.910;8.630;2022-12-05T05:03:20;35.00;;;23.65;;
22871;SDS011;11603;44.910;8.630;2022-12-05T05:05:59;38.38;;;24.27;;
22871;SDS011;11603;44.910;8.630;2022-12-05T05:08:26;33.13;;;22.92;;
22871;SDS011;11603;44.910;8.630;2022-12-05T05:11:15;34.05;;;23.08;;
22871;SDS011;11603;44.910;8.630;2022-12-05T05:13:44;36.50;;;23.38;;
22871;SDS011;11603;44.910;8.630;2022-12-05T05:16:16;33.20;;;23.05;;
22871;SDS011;11603;44.910;8.630;2022-12-05T05:18:43;35.00;;;23.90;;
22871;SDS011;11603;44.910;8.630;2022-12-05T05:21:14;32.85;;;22.42;;
22871;SDS011;11603;44.910;8.630;2022-12-05T05:23:48;32.97;;;22.73;;
22871;SDS011;11603;44.910;8.630;2022-12-05T05:26:14;32.35;;;22.25;;
22871;SDS011;11603;44.910;8.630;2022-12-05T05:28:40;33.80;;;22.30;;
22871;SDS011;11603;44.910;8.630;2022-12-05T05:31:05;38.95;;;23.58;;
22871;SDS011;11603;44.910;8.630;2022-12-05T05:33:31;32.55;;;21.75;;
22871;SDS011;11603;44.910;8.630;2022-12-05T05:36:09;29.52;;;20.77;;
22871;SDS011;11603;44.910;8.630;2022-12-05T05:38:37;31.00;;;21.02;;
22871;SDS011;11603;44.910;8.630;2022-12-05T05:41:04;30.05;;;19.50;;
22871;SDS011;11603;44.910;8.630;2022-12-05T05:43:30;29.52;;;20.58;;
22871;SDS011;11603;44.910;8.630;2022-12-05T05:45:56;29.90;;;20.73;;
22871;SDS011;11603;44.910;8.630;2022-12-05T05:48:21;29.75;;;21.13;;
22871;SDS011;11603;44.910;8.630;2022-12-05T05:50:47;28.52;;;20.65;;
22871;SDS011;11603;44.910;8.630;2022-12-05T05:53:12;31.42;;;20.40;;
22871;SDS011;11603;44.910;8.630;2022-12-05T05:55:41;29.30;;;18.90;;
22871;SDS011;11603;44.910;8.630;2022-12-05T05:58:07;27.23;;;19.02;;
22871;SDS011;11603;44.910;8.630;2022-12-05T06:00:33;25.30;;;18.70;;
22871;SDS011;11603;44.910;8.630;2022-12-05T06:02:59;25.92;;;19.35;;
22871;SDS011;11603;44.910;8.630;2022-12-05T06:05:24;26.58;;;18.95;;
22871;SDS011;11603;44.910;8.630;2022-12-05T06:07:51;26.08;;;17.75;;
22871;SDS011;11603;44.910;8.630;2022-12-05T06:10:17;26.65;;;17.60;;
22871;SDS011;11603;44.910;8.630;2022-12-05T06:12:43;25.33;;;17.63;;
22871;SDS011;11603;44.910;8.630;2022-12-05T06:15:09;24.60;;;17.55;;
22871;SDS011;11603;44.910;8.630;2022-12-05T06:17:35;25.05;;;17.17;;
22871;SDS011;11603;44.910;8.630;2022-12-05T06:20:01;25.23;;;17.45;;
22871;SDS011;11603;44.910;8.630;2022-12-05T06:22:26;25.50;;;17.88;;
22871;SDS011;11603;44.910;8.630;2022-12-05T06:24:54;23.65;;;17.75;;
22871;SDS011;11603;44.910;8.630;2022-12-05T06:27:19;23.10;;;16.80;;
22871;SDS011;11603;44.910;8.630;2022-12-05T06:29:44;24.20;;;17.15;;
22871;SDS011;11603;44.910;8.630;2022-12-05T06:32:10;24.13;;;17.00;;
22871;SDS011;11603;44.910;8.630;2022-12-05T06:34:35;22.83;;;17.38;;
22871;SDS011;11603;44.910;8.630;2022-12-05T06:37:01;24.40;;;17.55;;
22871;SDS011;11603;44.910;8.630;2022-12-05T06:39:26;24.33;;;17.10;;
22871;SDS011;11603;44.910;8.630;2022-12-05T06:41:52;22.63;;;17.20;;
22871;SDS011;11603;44.910;8.630;2022-12-05T06:44:18;25.05;;;17.35;;
22871;SDS011;11603;44.910;8.630;2022-12-05T06:46:45;22.70;;;16.77;;
22871;SDS011;11603;44.910;8.630;2022-12-05T06:49:11;25.45;;;17.73;;
22871;SDS011;11603;44.910;8.630;2022-12-05T06:51:36;23.42;;;17.02;;
22871;SDS011;11603;44.910;8.630;2022-12-05T06:54:02;26.25;;;17.48;;
22871;SDS011;11603;44.910;8.630;2022-12-05T06:56:27;25.10;;;16.85;;
22871;SDS011;11603;44.910;8.630;2022-12-05T06:58:53;19.88;;;15.45;;
22871;SDS011;11603;44.910;8.630;2022-12-05T07:01:20;19.98;;;15.15;;
22871;SDS011;11603;44.910;8.630;2022-12-05T07:06:46;20.23;;;15.25;;
22871;SDS011;11603;44.910;8.630;2022-12-05T07:09:15;20.92;;;15.15;;
22871;SDS011;11603;44.910;8.630;2022-12-05T07:11:44;17.50;;;14.80;;
22871;SDS011;11603;44.910;8.630;2022-12-05T07:14:11;22.60;;;14.32;;
22871;SDS011;11603;44.910;8.630;2022-12-05T07:16:36;20.63;;;15.15;;
22871;SDS011;11603;44.910;8.630;2022-12-05T07:19:02;20.08;;;15.27;;
22871;SDS011;11603;44.910;8.630;2022-12-05T07:21:27;18.08;;;14.48;;
22871;SDS011;11603;44.910;8.630;2022-12-05T07:23:53;18.25;;;13.70;;
22871;SDS011;11603;44.910;8.630;2022-12-05T07:26:20;20.02;;;14.32;;
22871;SDS011;11603;44.910;8.630;2022-12-05T07:28:48;17.98;;;13.55;;
22871;SDS011;11603;44.910;8.630;2022-12-05T07:31:16;15.85;;;12.90;;
22871;SDS011;11603;44.910;8.630;2022-12-05T07:33:47;16.98;;;13.43;;
22871;SDS011;11603;44.910;8.630;2022-12-05T07:36:14;16.77;;;13.25;;
22871;SDS011;11603;44.910;8.630;2022-12-05T07:38:41;16.05;;;12.77;;
22871;SDS011;11603;44.910;8.630;2022-12-05T07:41:09;20.30;;;13.23;;
22871;SDS011;11603;44.910;8.630;2022-12-05T07:43:41;17.83;;;13.60;;
22871;SDS011;11603;44.910;8.630;2022-12-05T07:46:08;21.13;;;13.57;;
22871;SDS011;11603;44.910;8.630;2022-12-05T07:48:35;17.95;;;12.82;;
22871;SDS011;11603;44.910;8.630;2022-12-05T07:51:05;17.65;;;13.57;;
22871;SDS011;11603;44.910;8.630;2022-12-05T07:53:32;18.13;;;14.05;;
22871;SDS011;11603;44.910;8.630;2022-12-05T07:55:59;16.50;;;12.88;;
22871;SDS011;11603;44.910;8.630;2022-12-05T07:58:29;17.05;;;12.98;;
22871;SDS011;11603;44.910;8.630;2022-12-05T08:00:56;19.17;;;13.20;;
22871;SDS011;11603;44.910;8.630;2022-12-05T08:03:23;18.90;;;13.25;;
22871;SDS011;11603;44.910;8.630;2022-12-05T08:05:48;17.05;;;12.32;;
22871;SDS011;11603;44.910;8.630;2022-12-05T08:08:14;18.65;;;12.15;;
22871;SDS011;11603;44.910;8.630;2022-12-05T08:10:40;16.83;;;13.02;;
22871;SDS011;11603;44.910;8.630;2022-12-05T08:13:05;15.48;;;12.30;;
22871;SDS011;11603;44.910;8.630;2022-12-05T08:15:35;16.55;;;12.63;;
22871;SDS011;11603;44.910;8.630;2022-12-05T08:18:00;16.63;;;11.95;;
22871;SDS011;11603;44.910;8.630;2022-12-05T08:20:26;18.48;;;12.98;;
22871;SDS011;11603;44.910;8.630;2022-12-05T08:22:51;17.38;;;12.63;;
22871;SDS011;11603;44.910;8.630;2022-12-05T08:25:18;16.40;;;12.52;;
22871;SDS011;11603;44.910;8.630;2022-12-05T08:27:43;18.17;;;11.52;;
22871;SDS011;11603;44.910;8.630;2022-12-05T08:30:09;16.30;;;12.32;;
22871;SDS011;11603;44.910;8.630;2022-12-05T08:32:34;16.25;;;12.50;;
22871;SDS011;11603;44.910;8.630;2022-12-05T08:35:00;15.45;;;12.45;;
22871;SDS011;11603;44.910;8.630;2022-12-05T08:37:25;17.33;;;12.82;;
22871;SDS011;11603;44.910;8.630;2022-12-05T08:39:51;15.25;;;12.45;;
22871;SDS011;11603;44.910;8.630;2022-12-05T08:42:16;16.55;;;13.15;;
22871;SDS011;11603;44.910;8.630;2022-12-05T08:44:41;16.08;;;13.25;;
22871;SDS011;11603;44.910;8.630;2022-12-05T08:47:07;18.02;;;12.38;;
22871;SDS011;11603;44.910;8.630;2022-12-05T08:49:32;16.40;;;12.40;;
22871;SDS011;11603;44.910;8.630;2022-12-05T08:51:58;17.05;;;12.10;;
22871;SDS011;11603;44.910;8.630;2022-12-05T08:54:23;16.85;;;10.68;;
22871;SDS011;11603;44.910;8.630;2022-12-05T08:56:49;15.68;;;11.88;;
22871;SDS011;11603;44.910;8.630;2022-12-05T08:59:15;15.60;;;12.13;;
22871;SDS011;11603;44.910;8.630;2022-12-05T09:01:41;17.13;;;12.00;;
22871;SDS011;11603;44.910;8.630;2022-12-05T09:04:06;18.90;;;11.65;;
22871;SDS011;11603;44.910;8.630;2022-12-05T09:06:32;15.40;;;12.10;;
22871;SDS011;11603;44.910;8.630;2022-12-05T09:09:00;16.10;;;12.75;;
22871;SDS011;11603;44.910;8.630;2022-12-05T09:11:31;14.93;;;12.55;;
22871;SDS011;11603;44.910;8.630;2022-12-05T09:13:59;16.10;;;13.30;;
22871;SDS011;11603;44.910;8.630;2022-12-05T09:16:26;15.23;;;12.60;;
22871;SDS011;11603;44.910;8.630;2022-12-05T09:18:53;13.48;;;11.18;;
22871;SDS011;11603;44.910;8.630;2022-12-05T09:21:20;15.38;;;11.38;;
22871;SDS011;11603;44.910;8.630;2022-12-05T09:23:47;17.52;;;11.77;;
22871;SDS011;11603;44.910;8.630;2022-12-05T09:26:15;13.82;;;11.52;;
22871;SDS011;11603;44.910;8.630;2022-12-05T09:28:44;13.95;;;11.07;;
22871;SDS011;11603;44.910;8.630;2022-12-05T09:31:20;18.70;;;13.10;;
22871;SDS011;11603;44.910;8.630;2022-12-05T09:33:49;14.10;;;10.25;;
22871;SDS011;11603;44.910;8.630;2022-12-05T09:36:17;14.85;;;10.90;;
22871;SDS011;11603;44.910;8.630;2022-12-05T09:38:45;15.35;;;10.93;;
22871;SDS011;11603;44.910;8.630;2022-12-05T09:41:22;14.10;;;11.05;;
22871;SDS011;11603;44.910;8.630;2022-12-05T09:47:11;13.75;;;11.23;;
22871;SDS011;11603;44.910;8.630;2022-12-05T09:49:52;15.25;;;11.52;;
22871;SDS011;11603;44.910;8.630;2022-12-05T09:52:24;13.02;;;10.15;;
22871;SDS011;11603;44.910;8.630;2022-12-05T09:54:52;12.18;;;10.10;;
22871;SDS011;11603;44.910;8.630;2022-12-05T09:57:38;15.07;;;10.85;;
22871;SDS011;11603;44.910;8.630;2022-12-05T10:00:08;14.02;;;10.98;;
22871;SDS011;11603;44.910;8.630;2022-12-05T10:05:42;13.02;;;10.27;;
22871;SDS011;11603;44.910;8.630;2022-12-05T10:08:24;14.63;;;10.85;;
22871;SDS011;11603;44.910;8.630;2022-12-05T10:10:56;12.98;;;10.05;;
22871;SDS011;11603;44.910;8.630;2022-12-05T10:16:04;11.55;;;8.75;;
22871;SDS011;11603;44.910;8.630;2022-12-05T10:21:15;12.38;;;8.90;;
22871;SDS011;11603;44.910;8.630;2022-12-05T10:23:53;14.45;;;10.00;;
22871;SDS011;11603;44.910;8.630;2022-12-05T10:26:22;20.65;;;13.13;;
22871;SDS011;11603;44.910;8.630;2022-12-05T10:31:41;25.58;;;12.85;;
22871;SDS011;11603;44.910;8.630;2022-12-05T10:34:17;16.80;;;10.07;;
22871;SDS011;11603;44.910;8.630;2022-12-05T10:37:14;12.93;;;10.00;;
22871;SDS011;11603;44.910;8.630;2022-12-05T10:39:41;14.18;;;10.45;;
22871;SDS011;11603;44.910;8.630;2022-12-05T10:42:27;15.10;;;10.45;;
22871;SDS011;11603;44.910;8.630;2022-12-05T10:44:56;12.73;;;10.43;;
22871;SDS011;11603;44.910;8.630;2022-12-05T10:47:24;16.17;;;9.75;;
22871;SDS011;11603;44.910;8.630;2022-12-05T10:49:50;15.05;;;10.73;;
22871;SDS011;11603;44.910;8.630;2022-12-05T10:52:17;13.05;;;10.45;;
22871;SDS011;11603;44.910;8.630;2022-12-05T10:54:59;14.48;;;10.82;;
22871;SDS011;11603;44.910;8.630;2022-12-05T10:57:29;14.27;;;10.68;;
22871;SDS011;11603;44.910;8.630;2022-12-05T10:59:54;13.27;;;10.43;;
22871;SDS011;11603;44.910;8.630;2022-12-05T11:02:30;15.60;;;11.57;;
22871;SDS011;11603;44.910;8.630;2022-12-05T11:04:58;14.40;;;11.27;;
22871;SDS011;11603;44.910;8.630;2022-12-05T11:07:26;11.77;;;10.30;;
22871;SDS011;11603;44.910;8.630;2022-12-05T11:12:46;13.45;;;11.15;;
22871;SDS011;11603;44.910;8.630;2022-12-05T11:17:43;12.70;;;9.75;;
22871;SDS011;11603;44.910;8.630;2022-12-05T11:22:41;12.15;;;10.13;;
22871;SDS011;11603;44.910;8.630;2022-12-05T11:27:53;10.80;;;9.50;;
22871;SDS011;11603;44.910;8.630;2022-12-05T11:30:23;13.02;;;10.50;;
22871;SDS011;11603;44.910;8.630;2022-12-05T11:33:09;12.93;;;10.43;;
22871;SDS011;11603;44.910;8.630;2022-12-05T11:35:42;12.02;;;10.23;;
22871;SDS011;11603;44.910;8.630;2022-12-05T11:38:10;12.50;;;10.27;;
22871;SDS011;11603;44.910;8.630;2022-12-05T11:41:21;11.75;;;10.25;;
22871;SDS011;11603;44.910;8.630;2022-12-05T11:46:16;12.25;;;10.00;;
22871;SDS011;11603;44.910;8.630;2022-12-05T11:55:09;11.52;;;10.15;;
22871;SDS011;11603;44.910;8.630;2022-12-05T12:08:25;9.88;;;8.48;;
22871;SDS011;11603;44.910;8.630;2022-12-05T12:24:15;6.97;;;6.28;;
22871;SDS011;11603;44.910;8.630;2022-12-05T12:27:12;7.38;;;6.15;;
22871;SDS011;11603;44.910;8.630;2022-12-05T12:32:43;6.90;;;6.20;;
22871;SDS011;11603;44.910;8.630;2022-12-05T12:49:16;9.65;;;6.00;;
22871;SDS011;11603;44.910;8.630;2022-12-05T12:52:04;6.80;;;6.07;;
22871;SDS011;11603;44.910;8.630;2022-12-05T12:54:53;7.55;;;6.28;;
22871;SDS011;11603;44.910;8.630;2022-12-05T12:57:33;6.50;;;5.85;;
22871;SDS011;11603;44.910;8.630;2022-12-05T13:00:03;6.30;;;5.68;;
22871;SDS011;11603;44.910;8.630;2022-12-05T13:07:55;6.65;;;5.45;;
22871;SDS011;11603;44.910;8.630;2022-12-05T13:13:06;7.65;;;6.07;;
22871;SDS011;11603;44.910;8.630;2022-12-05T13:15:39;6.85;;;5.80;;
22871;SDS011;11603;44.910;8.630;2022-12-05T13:18:23;8.02;;;5.95;;
22871;SDS011;11603;44.910;8.630;2022-12-05T13:20:53;6.30;;;5.70;;
22871;SDS011;11603;44.910;8.630;2022-12-05T13:23:24;7.60;;;5.45;;
22871;SDS011;11603;44.910;8.630;2022-12-05T13:25:54;5.72;;;5.20;;
22871;SDS011;11603;44.910;8.630;2022-12-05T13:28:29;6.60;;;5.95;;
22871;SDS011;11603;44.910;8.630;2022-12-05T13:30:59;6.78;;;5.95;;
22871;SDS011;11603;44.910;8.630;2022-12-05T13:33:30;8.93;;;6.95;;
22871;SDS011;11603;44.910;8.630;2022-12-05T13:36:05;7.75;;;6.35;;
22871;SDS011;11603;44.910;8.630;2022-12-05T13:41:58;7.45;;;6.07;;
22871;SDS011;11603;44.910;8.630;2022-12-05T13:44:52;7.75;;;6.55;;
22871;SDS011;11603;44.910;8.630;2022-12-05T13:49:59;9.07;;;5.88;;
22871;SDS011;11603;44.910;8.630;2022-12-05T13:52:27;7.32;;;6.57;;
22871;SDS011;11603;44.910;8.630;2022-12-05T13:55:00;6.38;;;5.47;;
22871;SDS011;11603;44.910;8.630;2022-12-05T14:07:42;9.27;;;7.22;;
22871;SDS011;11603;44.910;8.630;2022-12-05T14:10:12;7.85;;;6.38;;
22871;SDS011;11603;44.910;8.630;2022-12-05T14:12:56;11.25;;;7.07;;
22871;SDS011;11603;44.910;8.630;2022-12-05T14:17:53;9.35;;;6.97;;
22871;SDS011;11603;44.910;8.630;2022-12-05T14:20:28;7.35;;;6.40;;
22871;SDS011;11603;44.910;8.630;2022-12-05T14:26:31;7.97;;;6.35;;
22871;SDS011;11603;44.910;8.630;2022-12-05T14:37:55;8.07;;;6.97;;
22871;SDS011;11603;44.910;8.630;2022-12-05T14:45:28;10.80;;;6.47;;
22871;SDS011;11603;44.910;8.630;2022-12-05T14:47:58;7.80;;;6.70;;
22871;SDS011;11603;44.910;8.630;2022-12-05T14:55:40;8.48;;;6.90;;
22871;SDS011;11603;44.910;8.630;2022-12-05T15:01:27;8.07;;;6.85;;
22871;SDS011;11603;44.910;8.630;2022-12-05T15:03:58;9.70;;;6.45;;
22871;SDS011;11603;44.910;8.630;2022-12-05T15:06:26;7.28;;;6.40;;
22871;SDS011;11603;44.910;8.630;2022-12-05T15:08:54;7.47;;;6.40;;
22871;SDS011;11603;44.910;8.630;2022-12-05T15:11:25;6.93;;;6.07;;
22871;SDS011;11603;44.910;8.630;2022-12-05T15:14:04;7.75;;;6.50;;
22871;SDS011;11603;44.910;8.630;2022-12-05T15:16:58;7.80;;;6.47;;
22871;SDS011;11603;44.910;8.630;2022-12-05T15:19:59;7.60;;;6.40;;
22871;SDS011;11603;44.910;8.630;2022-12-05T15:22:52;8.18;;;6.63;;
22871;SDS011;11603;44.910;8.630;2022-12-05T15:25:22;9.23;;;7.05;;
22871;SDS011;11603;44.910;8.630;2022-12-05T15:27:58;10.48;;;7.25;;
22871;SDS011;11603;44.910;8.630;2022-12-05T15:30:27;9.43;;;7.32;;
22871;SDS011;11603;44.910;8.630;2022-12-05T15:32:54;8.95;;;7.93;;
22871;SDS011;11603;44.910;8.630;2022-12-05T15:35:19;13.85;;;7.82;;
22871;SDS011;11603;44.910;8.630;2022-12-05T15:40:37;8.80;;;7.88;;
22871;SDS011;11603;44.910;8.630;2022-12-05T15:43:26;13.38;;;8.75;;
22871;SDS011;11603;44.910;8.630;2022-12-05T15:46:17;12.50;;;8.32;;
22871;SDS011;11603;44.910;8.630;2022-12-05T15:48:44;12.07;;;8.23;;
22871;SDS011;11603;44.910;8.630;2022-12-05T15:51:10;11.80;;;8.32;;
22871;SDS011;11603;44.910;8.630;2022-12-05T15:53:36;10.27;;;8.60;;
22871;SDS011;11603;44.910;8.630;2022-12-05T15:56:15;11.70;;;8.18;;
22871;SDS011;11603;44.910;8.630;2022-12-05T15:58:47;15.20;;;9.13;;
22871;SDS011;11603;44.910;8.630;2022-12-05T16:01:21;10.88;;;8.80;;
22871;SDS011;11603;44.910;8.630;2022-12-05T16:03:58;11.40;;;9.45;;
22871;SDS011;11603;44.910;8.630;2022-12-05T16:09:21;23.70;;;11.00;;
22871;SDS011;11603;44.910;8.630;2022-12-05T16:11:56;19.58;;;10.68;;
22871;SDS011;11603;44.910;8.630;2022-12-05T16:14:29;20.17;;;11.00;;
22871;SDS011;11603;44.910;8.630;2022-12-05T16:17:02;27.55;;;11.70;;
22871;SDS011;11603;44.910;8.630;2022-12-05T16:19:29;26.95;;;11.32;;
22871;SDS011;11603;44.910;8.630;2022-12-05T16:22:00;13.13;;;10.30;;
22871;SDS011;11603;44.910;8.630;2022-12-05T16:24:53;11.27;;;9.90;;
22871;SDS011;11603;44.910;8.630;2022-12-05T16:30:08;14.65;;;10.50;;
22871;SDS011;11603;44.910;8.630;2022-12-05T16:32:37;14.73;;;11.50;;
22871;SDS011;11603;44.910;8.630;2022-12-05T16:35:21;17.17;;;11.52;;
22871;SDS011;11603;44.910;8.630;2022-12-05T16:38:09;20.38;;;12.55;;
22871;SDS011;11603;44.910;8.630;2022-12-05T16:40:37;15.43;;;12.10;;
22871;SDS011;11603;44.910;8.630;2022-12-05T16:43:05;21.83;;;11.30;;
22871;SDS011;11603;44.910;8.630;2022-12-05T16:45:41;19.83;;;11.80;;
22871;SDS011;11603;44.910;8.630;2022-12-05T16:48:27;20.65;;;14.98;;
22871;SDS011;11603;44.910;8.630;2022-12-05T16:51:36;16.38;;;12.93;;
22871;SDS011;11603;44.910;8.630;2022-12-05T16:53:49;13.00;;;11.32;;
22871;SDS011;11603;44.910;8.630;2022-12-05T16:58:53;14.95;;;12.10;;
22871;SDS011;11603;44.910;8.630;2022-12-05T17:01:23;19.02;;;12.25;;
22871;SDS011;11603;44.910;8.630;2022-12-05T17:03:50;18.50;;;12.48;;
22871;SDS011;11603;44.910;8.630;2022-12-05T17:06:17;19.88;;;12.65;;
22871;SDS011;11603;44.910;8.630;2022-12-05T17:08:43;18.63;;;12.65;;
22871;SDS011;11603;44.910;8.630;2022-12-05T17:11:13;21.23;;;13.30;;
22871;SDS011;11603;44.910;8.630;2022-12-05T17:13:43;17.00;;;13.68;;
22871;SDS011;11603;44.910;8.630;2022-12-05T17:16:11;21.00;;;14.43;;
22871;SDS011;11603;44.910;8.630;2022-12-05T17:18:37;20.63;;;14.02;;
22871;SDS011;11603;44.910;8.630;2022-12-05T17:21:02;20.48;;;12.52;;
22871;SDS011;11603;44.910;8.630;2022-12-05T17:23:28;17.90;;;13.32;;
22871;SDS011;11603;44.910;8.630;2022-12-05T17:25:54;17.35;;;12.98;;
22871;SDS011;11603;44.910;8.630;2022-12-05T17:28:21;21.05;;;13.27;;
22871;SDS011;11603;44.910;8.630;2022-12-05T17:30:48;19.98;;;12.02;;
22871;SDS011;11603;44.910;8.630;2022-12-05T17:33:15;19.02;;;12.20;;
22871;SDS011;11603;44.910;8.630;2022-12-05T17:35:42;15.57;;;12.05;;
22871;SDS011;11603;44.910;8.630;2022-12-05T17:38:08;15.40;;;11.88;;
22871;SDS011;11603;44.910;8.630;2022-12-05T17:40:37;20.83;;;13.20;;
22871;SDS011;11603;44.910;8.630;2022-12-05T17:43:04;17.20;;;12.65;;
22871;SDS011;11603;44.910;8.630;2022-12-05T17:45:30;27.33;;;13.98;;
22871;SDS011;11603;44.910;8.630;2022-12-05T17:47:56;29.25;;;19.23;;
22871;SDS011;11603;44.910;8.630;2022-12-05T17:50:22;24.55;;;15.07;;
22871;SDS011;11603;44.910;8.630;2022-12-05T17:52:49;21.00;;;15.13;;
22871;SDS011;11603;44.910;8.630;2022-12-05T17:55:20;21.08;;;14.38;;